Time,TemperatureF,DewpointF,PressureIn,WindDirection,WindDirectionDegrees,WindSpeedMPH,WindSpeedGustMPH,Humidity,HourlyPrecipIn,Conditions,Clouds,dailyrainin,SoftwareType,DateUTC
2015-09-05 00:04:00,49.1,48.6,30.26,SSE,148,0.0,0.0,98,0.00,,,0.00,Wunderground v.1.15,2015-09-05 04:04:00,
2015-09-05 00:10:00,48.7,47.9,30.25,SSE,148,0.0,0.0,97,0.00,,,0.00,Wunderground v.1.15,2015-09-05 04:10:00,
2015-09-05 00:16:00,48.6,48.1,30.26,SSE,148,0.0,0.0,98,0.00,,,0.00,Wunderground v.1.15,2015-09-05 04:16:00,
2015-09-05 00:21:00,48.5,47.7,30.25,SSE,148,0.0,0.0,97,0.00,,,0.00,Wunderground v.1.15,2015-09-05 04:21:00,
2015-09-05 00:27:00,48.4,47.9,30.26,SSE,148,0.0,0.0,98,0.00,,,0.00,Wunderground v.1.15,2015-09-05 04:27:00,
2015-09-05 00:33:00,48.4,47.9,30.26,SSE,148,0.0,0.0,98,0.00,,,0.00,Wunderground v.1.15,2015-09-05 04:33:00,
2015-09-05 00:39:00,48.4,47.9,30.26,SSE,148,0.0,0.0,98,0.00,,,0.00,Wunderground v.1.15,2015-09-05 04:39:00,
2015-09-05 00:44:00,48.3,47.8,30.26,SSE,148,0.0,0.0,98,0.00,,,0.00,Wunderground v.1.15,2015-09-05 04:44:00,
2015-09-05 00:50:00,48.1,47.6,30.26,SSE,148,0.0,0.0,98,0.00,,,0.00,Wunderground v.1.15,2015-09-05 04:50:00,
2015-09-05 00:56:00,48.1,47.6,30.26,SSE,148,0.0,0.0,98,0.00,,,0.00,Wunderground v.1.15,2015-09-05 04:56:00,
2015-09-05 01:02:00,47.9,47.4,30.26,SSE,148,0.0,0.0,98,0.00,,,0.00,Wunderground v.1.15,2015-09-05 05:02:00,
2015-09-05 01:07:00,47.7,47.2,30.26,SSE,148,0.0,0.0,98,0.00,,,0.00,Wunderground v.1.15,2015-09-05 05:07:00,
2015-09-05 01:13:00,47.4,46.9,30.26,SSE,148,0.0,0.0,98,0.00,,,0.00,Wunderground v.1.15,2015-09-05 05:13:00,
2015-09-05 01:19:00,47.4,46.9,30.26,SSE,148,0.0,0.0,98,0.00,,,0.00,Wunderground v.1.15,2015-09-05 05:19:00,
2015-09-05 01:25:00,47.3,46.8,30.26,SSE,148,0.0,0.0,98,0.00,,,0.00,Wunderground v.1.15,2015-09-05 05:25:00,
2015-09-05 01:31:00,47.2,46.7,30.26,SSE,148,0.0,0.0,98,0.00,,,0.00,Wunderground v.1.15,2015-09-05 05:31:00,
2015-09-05 01:36:00,46.9,46.4,30.26,SSE,148,0.0,0.0,98,0.00,,,0.00,Wunderground v.1.15,2015-09-05 05:36:00,
2015-09-05 01:42:00,46.9,46.4,30.26,SSE,148,0.0,0.0,98,0.00,,,0.00,Wunderground v.1.15,2015-09-05 05:42:00,
2015-09-05 01:48:00,47.0,46.5,30.26,SSE,148,0.0,0.0,98,0.00,,,0.00,Wunderground v.1.15,2015-09-05 05:48:00,
2015-09-05 01:53:00,47.1,46.6,30.25,SSE,148,0.0,0.0,98,0.00,,,0.00,Wunderground v.1.15,2015-09-05 05:53:00,
2015-09-05 01:59:00,46.9,46.4,30.25,SSE,148,0.0,0.0,98,0.00,,,0.00,Wunderground v.1.15,2015-09-05 05:59:00,
2015-09-05 02:04:00,46.7,46.2,30.24,SSE,148,0.0,0.0,98,0.00,,,0.00,Wunderground v.1.15,2015-09-05 06:04:00,
2015-09-05 02:09:00,46.8,46.3,30.25,SSE,148,0.0,0.0,98,0.00,,,0.00,Wunderground v.1.15,2015-09-05 06:09:00,
2015-09-05 02:14:00,46.9,46.4,30.24,SSE,148,0.0,0.0,98,0.00,,,0.00,Wunderground v.1.15,2015-09-05 06:14:00,
2015-09-05 02:19:00,46.8,46.3,30.24,SSE,148,0.0,0.0,98,0.00,,,0.00,Wunderground v.1.15,2015-09-05 06:19:00,
2015-09-05 02:24:00,46.5,46.0,30.25,SSE,148,0.0,0.0,98,0.00,,,0.00,Wunderground v.1.15,2015-09-05 06:24:00,
2015-09-05 02:29:00,46.7,46.2,30.25,SSE,148,0.0,0.0,98,0.00,,,0.00,Wunderground v.1.15,2015-09-05 06:29:00,
2015-09-05 02:34:00,46.6,46.1,30.24,SSE,148,0.0,0.0,98,0.00,,,0.00,Wunderground v.1.15,2015-09-05 06:34:00,
2015-09-05 02:39:00,46.4,45.9,30.24,SSE,148,0.0,0.0,98,0.00,,,0.00,Wunderground v.1.15,2015-09-05 06:39:00,
2015-09-05 02:44:00,46.5,46.0,30.24,SSE,148,0.0,0.0,98,0.00,,,0.00,Wunderground v.1.15,2015-09-05 06:44:00,
2015-09-05 02:49:00,46.5,46.0,30.25,SSE,148,0.0,0.0,98,0.00,,,0.00,Wunderground v.1.15,2015-09-05 06:49:00,
2015-09-05 02:54:00,46.4,45.9,30.25,SSE,148,0.0,0.0,98,0.00,,,0.00,Wunderground v.1.15,2015-09-05 06:54:00,
2015-09-05 02:59:00,46.4,45.9,30.25,SSE,148,0.0,0.0,98,0.00,,,0.00,Wunderground v.1.15,2015-09-05 06:59:00,
2015-09-05 03:04:00,46.3,45.8,30.25,SSE,148,0.0,0.0,98,0.00,,,0.00,Wunderground v.1.15,2015-09-05 07:04:00,
2015-09-05 03:09:00,46.2,45.7,30.25,SSE,148,0.0,0.0,98,0.00,,,0.00,Wunderground v.1.15,2015-09-05 07:09:00,
2015-09-05 03:14:00,46.2,45.7,30.25,SSE,148,0.0,0.0,98,0.00,,,0.00,Wunderground v.1.15,2015-09-05 07:14:00,
2015-09-05 03:19:00,46.0,45.5,30.25,SSE,148,0.0,0.0,98,0.00,,,0.00,Wunderground v.1.15,2015-09-05 07:19:00,
2015-09-05 03:24:00,45.9,45.4,30.25,SSE,148,0.0,0.0,98,0.00,,,0.00,Wunderground v.1.15,2015-09-05 07:24:00,
2015-09-05 03:29:00,45.9,45.4,30.25,SSE,148,0.0,0.0,98,0.00,,,0.00,Wunderground v.1.15,2015-09-05 07:29:00,
2015-09-05 03:34:00,45.8,45.3,30.25,SSE,148,0.0,0.0,98,0.00,,,0.00,Wunderground v.1.15,2015-09-05 07:34:00,
2015-09-05 03:39:00,45.8,45.3,30.25,SSE,148,0.0,0.0,98,0.00,,,0.00,Wunderground v.1.15,2015-09-05 07:39:00,
2015-09-05 03:44:00,45.6,45.1,30.25,SSE,148,0.0,0.0,98,0.00,,,0.00,Wunderground v.1.15,2015-09-05 07:44:00,
2015-09-05 03:49:00,45.2,44.7,30.26,SSE,148,0.0,0.0,98,0.00,,,0.00,Wunderground v.1.15,2015-09-05 07:49:00,
2015-09-05 03:54:00,45.4,44.9,30.26,SSE,148,0.0,0.0,98,0.00,,,0.00,Wunderground v.1.15,2015-09-05 07:54:00,
2015-09-05 03:59:00,45.5,45.0,30.26,SSE,148,0.0,0.0,98,0.00,,,0.00,Wunderground v.1.15,2015-09-05 07:59:00,
2015-09-05 04:04:00,45.5,45.0,30.26,SSE,148,0.0,0.0,98,0.00,,,0.00,Wunderground v.1.15,2015-09-05 08:04:00,
2015-09-05 04:09:00,45.3,44.8,30.26,SSE,148,0.0,0.0,98,0.00,,,0.00,Wunderground v.1.15,2015-09-05 08:09:00,
2015-09-05 04:14:00,44.9,44.4,30.26,SSE,148,0.0,0.0,98,0.00,,,0.00,Wunderground v.1.15,2015-09-05 08:14:00,
2015-09-05 04:19:00,44.9,44.4,30.26,SSE,148,0.0,0.0,98,0.00,,,0.00,Wunderground v.1.15,2015-09-05 08:19:00,
2015-09-05 04:24:00,45.1,44.6,30.26,SSE,148,0.0,0.0,98,0.00,,,0.00,Wunderground v.1.15,2015-09-05 08:24:00,
2015-09-05 04:29:00,45.4,44.9,30.26,SSE,148,0.0,0.0,98,0.00,,,0.00,Wunderground v.1.15,2015-09-05 08:29:00,
2015-09-05 04:34:00,45.4,44.9,30.26,SSE,148,0.0,0.0,98,0.00,,,0.00,Wunderground v.1.15,2015-09-05 08:34:00,
2015-09-05 04:39:00,45.3,44.8,30.26,SSE,148,0.0,0.0,98,0.00,,,0.00,Wunderground v.1.15,2015-09-05 08:39:00,
2015-09-05 04:44:00,45.2,44.7,30.26,SSE,148,0.0,0.0,98,0.00,,,0.00,Wunderground v.1.15,2015-09-05 08:44:00,
2015-09-05 04:49:00,45.2,44.7,30.26,SSE,148,0.0,0.0,98,0.00,,,0.00,Wunderground v.1.15,2015-09-05 08:49:00,
2015-09-05 04:54:00,45.2,44.7,30.26,SSE,148,0.0,0.0,98,0.00,,,0.00,Wunderground v.1.15,2015-09-05 08:54:00,
2015-09-05 04:59:00,45.1,44.6,30.26,SSE,148,0.0,0.0,98,0.00,,,0.00,Wunderground v.1.15,2015-09-05 08:59:00,
2015-09-05 05:04:00,45.0,44.5,30.27,SSE,148,0.0,0.0,98,0.00,,,0.00,Wunderground v.1.15,2015-09-05 09:04:00,
2015-09-05 05:09:00,44.9,44.4,30.27,SSE,148,0.0,0.0,98,0.00,,,0.00,Wunderground v.1.15,2015-09-05 09:09:00,
2015-09-05 05:15:00,44.7,44.2,30.27,SSE,148,0.0,0.0,98,0.00,,,0.00,Wunderground v.1.15,2015-09-05 09:15:00,
2015-09-05 05:20:00,44.7,44.2,30.28,SSE,148,0.0,0.0,98,0.00,,,0.00,Wunderground v.1.15,2015-09-05 09:20:00,
2015-09-05 05:25:00,44.7,44.2,30.28,SSE,148,0.0,0.0,98,0.00,,,0.00,Wunderground v.1.15,2015-09-05 09:25:00,
2015-09-05 05:30:00,44.6,44.1,30.28,SSE,148,0.0,0.0,98,0.00,,,0.00,Wunderground v.1.15,2015-09-05 09:30:00,
2015-09-05 05:35:00,44.6,44.1,30.28,SSE,148,0.0,0.0,98,0.00,,,0.00,Wunderground v.1.15,2015-09-05 09:35:00,
2015-09-05 05:40:00,44.7,44.2,30.28,SSE,148,0.0,0.0,98,0.00,,,0.00,Wunderground v.1.15,2015-09-05 09:40:00,
2015-09-05 05:45:00,44.7,44.2,30.28,SSE,148,0.0,0.0,98,0.00,,,0.00,Wunderground v.1.15,2015-09-05 09:45:00,
2015-09-05 05:50:00,44.5,44.0,30.28,SSE,148,0.0,0.0,98,0.00,,,0.00,Wunderground v.1.15,2015-09-05 09:50:00,
2015-09-05 05:55:00,44.2,43.7,30.28,SSE,148,0.0,0.0,98,0.00,,,0.00,Wunderground v.1.15,2015-09-05 09:55:00,
2015-09-05 06:00:00,44.2,43.7,30.29,SSE,148,0.0,0.0,98,0.00,,,0.00,Wunderground v.1.15,2015-09-05 10:00:00,
2015-09-05 06:09:00,44.5,44.2,30.29,SSE,148,0.0,0.0,99,0.00,,,0.00,Wunderground v.1.15,2015-09-05 10:09:00,
2015-09-05 06:14:00,44.7,44.2,30.29,SSE,148,0.0,0.0,98,0.00,,,0.00,Wunderground v.1.15,2015-09-05 10:14:00,
2015-09-05 06:19:00,45.1,44.8,30.29,SSE,148,0.0,0.0,99,0.00,,,0.00,Wunderground v.1.15,2015-09-05 10:19:00,
2015-09-05 06:24:00,45.5,45.2,30.29,SSE,148,0.0,0.0,99,0.00,,,0.00,Wunderground v.1.15,2015-09-05 10:24:00,
2015-09-05 06:29:00,45.8,45.5,30.29,SSE,148,0.0,0.0,99,0.00,,,0.00,Wunderground v.1.15,2015-09-05 10:29:00,
2015-09-05 06:34:00,46.2,45.9,30.29,SSE,148,0.0,0.0,99,0.00,,,0.00,Wunderground v.1.15,2015-09-05 10:34:00,
2015-09-05 06:39:00,46.5,46.2,30.29,SSE,148,0.0,0.0,99,0.00,,,0.00,Wunderground v.1.15,2015-09-05 10:39:00,
2015-09-05 06:44:00,46.6,46.3,30.29,SSE,148,0.0,0.0,99,0.00,,,0.00,Wunderground v.1.15,2015-09-05 10:44:00,
2015-09-05 06:49:00,46.8,46.5,30.29,SSE,148,0.0,0.0,99,0.00,,,0.00,Wunderground v.1.15,2015-09-05 10:49:00,